Disclaimer

Please do not use the information listed here in-flight or in-navigation, as they are not provided to us by the airports but are provided by volunteers, so they might be outdated.

Search


Regions


Airport information page

Radio informations:
Tower (TWR) - 129.0 MHz
DEP - 129.0 MHz
Approach (APP) - 129.0 MHz

Airport informations:
Latitude: 46° 30' 08.21" N
Longitude: 023° 53' 09.29" E
Elevation: 1083 feet - 330 meters
Operating hours: N/A
Operating agency: Military
Timezone: UTC+2(+3DT)
Fuel: Unknown fuel type or whether there is any fuel.

Runway information:
15/33 - 8202 x 164 feet< - >2500 x 50 meters

Recent METARs:
LRCT 180900Z 04002KT 9999 SKC 01/M04 Q1026 BLU BLU
LRCT 180900Z 04002KT 9999 SKC 01/M04 Q1026 BLU BLU
LRCT 181000Z 14003KT 9999 SKC 04/M03 Q1025 BLU BLU

Airport on the map: